sensor_id;sensor_type;location;lat;lon;timestamp;pressure;altitude;pressure_sealevel;temperature;humidity
4024;BME280;2026;51.002;13.668;2023-01-29T00:01:47;100266.13;;;-1.51;77.15
4024;BME280;2026;51.002;13.668;2023-01-29T00:06:53;100260.19;;;-1.52;76.05
4024;BME280;2026;51.002;13.668;2023-01-29T00:11:56;100250.91;;;-1.54;76.12
4024;BME280;2026;51.002;13.668;2023-01-29T00:17:01;100249.59;;;-1.47;75.97
4024;BME280;2026;51.002;13.668;2023-01-29T00:22:04;100242.28;;;-1.53;76.41
4024;BME280;2026;51.002;13.668;2023-01-29T00:27:07;100248.13;;;-1.51;75.99
4024;BME280;2026;51.002;13.668;2023-01-29T00:32:11;100232.91;;;-1.54;75.55
4024;BME280;2026;51.002;13.668;2023-01-29T00:37:14;100228.28;;;-1.49;74.85
4024;BME280;2026;51.002;13.668;2023-01-29T00:42:17;100216.75;;;-1.43;73.80
4024;BME280;2026;51.002;13.668;2023-01-29T00:47:39;100218.41;;;-1.55;74.95
4024;BME280;2026;51.002;13.668;2023-01-29T00:52:42;100215.03;;;-1.82;76.42
4024;BME280;2026;51.002;13.668;2023-01-29T00:57:45;100209.06;;;-1.56;76.21
4024;BME280;2026;51.002;13.668;2023-01-29T01:02:49;100212.84;;;-1.49;74.71
4024;BME280;2026;51.002;13.668;2023-01-29T01:08:09;100227.06;;;-1.56;76.57
4024;BME280;2026;51.002;13.668;2023-01-29T01:13:26;100236.09;;;-1.51;76.73
4024;BME280;2026;51.002;13.668;2023-01-29T01:18:30;100238.69;;;-1.51;76.48
4024;BME280;2026;51.002;13.668;2023-01-29T01:23:33;100228.78;;;-1.57;76.08
4024;BME280;2026;51.002;13.668;2023-01-29T01:28:37;100218.81;;;-1.62;75.70
4024;BME280;2026;51.002;13.668;2023-01-29T01:33:41;100212.03;;;-1.63;76.31
4024;BME280;2026;51.002;13.668;2023-01-29T01:38:44;100209.16;;;-1.71;76.51
4024;BME280;2026;51.002;13.668;2023-01-29T01:43:49;100215.72;;;-1.67;76.34
4024;BME280;2026;51.002;13.668;2023-01-29T01:48:56;100203.31;;;-1.73;75.91
4024;BME280;2026;51.002;13.668;2023-01-29T01:54:05;100200.13;;;-1.64;76.18
4024;BME280;2026;51.002;13.668;2023-01-29T01:59:11;100201.66;;;-1.61;76.45
4024;BME280;2026;51.002;13.668;2023-01-29T02:04:17;100216.16;;;-1.73;76.33
4024;BME280;2026;51.002;13.668;2023-01-29T02:09:44;100206.50;;;-1.69;76.22
4024;BME280;2026;51.002;13.668;2023-01-29T02:14:50;100189.41;;;-1.83;76.30
4024;BME280;2026;51.002;13.668;2023-01-29T02:20:02;100185.00;;;-1.81;77.12
4024;BME280;2026;51.002;13.668;2023-01-29T02:31:01;100176.16;;;-1.90;76.15
4024;BME280;2026;51.002;13.668;2023-01-29T02:36:18;100186.31;;;-2.01;76.42
4024;BME280;2026;51.002;13.668;2023-01-29T02:41:25;100184.16;;;-2.08;76.93
4024;BME280;2026;51.002;13.668;2023-01-29T02:46:37;100177.34;;;-2.09;77.27
4024;BME280;2026;51.002;13.668;2023-01-29T02:51:43;100190.19;;;-2.22;77.16
4024;BME280;2026;51.002;13.668;2023-01-29T02:56:53;100195.97;;;-2.18;76.69
4024;BME280;2026;51.002;13.668;2023-01-29T03:02:02;100194.53;;;-2.22;77.07
4024;BME280;2026;51.002;13.668;2023-01-29T03:07:09;100194.38;;;-2.34;77.87
4024;BME280;2026;51.002;13.668;2023-01-29T03:12:38;100198.72;;;-2.34;77.44
4024;BME280;2026;51.002;13.668;2023-01-29T03:17:46;100198.19;;;-2.39;77.19
4024;BME280;2026;51.002;13.668;2023-01-29T03:22:55;100198.78;;;-2.49;77.45
4024;BME280;2026;51.002;13.668;2023-01-29T03:28:03;100196.50;;;-2.53;77.40
4024;BME280;2026;51.002;13.668;2023-01-29T03:33:30;100182.50;;;-2.62;76.73
4024;BME280;2026;51.002;13.668;2023-01-29T03:38:34;100183.66;;;-2.53;76.42
4024;BME280;2026;51.002;13.668;2023-01-29T03:43:44;100193.94;;;-2.81;77.89
4024;BME280;2026;51.002;13.668;2023-01-29T03:48:54;100194.00;;;-2.68;77.15
4024;BME280;2026;51.002;13.668;2023-01-29T03:54:06;100184.06;;;-2.87;77.57
4024;BME280;2026;51.002;13.668;2023-01-29T03:59:19;100176.91;;;-2.82;77.21
4024;BME280;2026;51.002;13.668;2023-01-29T04:04:46;100192.31;;;-2.82;77.77
4024;BME280;2026;51.002;13.668;2023-01-29T04:09:56;100187.41;;;-2.72;76.68
4024;BME280;2026;51.002;13.668;2023-01-29T04:15:00;100177.66;;;-2.94;77.84
4024;BME280;2026;51.002;13.668;2023-01-29T04:20:06;100172.63;;;-2.96;78.07
4024;BME280;2026;51.002;13.668;2023-01-29T04:25:15;100146.59;;;-2.90;77.60
4024;BME280;2026;51.002;13.668;2023-01-29T04:30:24;100140.19;;;-3.24;78.40
4024;BME280;2026;51.002;13.668;2023-01-29T04:35:45;100139.81;;;-3.18;78.95
4024;BME280;2026;51.002;13.668;2023-01-29T04:41:01;100135.59;;;-3.19;78.41
4024;BME280;2026;51.002;13.668;2023-01-29T04:46:12;100133.13;;;-3.21;79.35
4024;BME280;2026;51.002;13.668;2023-01-29T04:51:21;100122.50;;;-3.29;79.32
4024;BME280;2026;51.002;13.668;2023-01-29T04:56:32;100115.78;;;-3.17;78.65
4024;BME280;2026;51.002;13.668;2023-01-29T05:01:37;100104.13;;;-3.08;78.55
4024;BME280;2026;51.002;13.668;2023-01-29T05:06:42;100088.53;;;-3.33;78.98
4024;BME280;2026;51.002;13.668;2023-01-29T05:11:48;100094.72;;;-3.22;79.17
4024;BME280;2026;51.002;13.668;2023-01-29T05:16:52;100086.56;;;-3.42;79.88
4024;BME280;2026;51.002;13.668;2023-01-29T05:21:59;100094.00;;;-3.24;78.98
4024;BME280;2026;51.002;13.668;2023-01-29T05:27:02;100082.44;;;-3.17;79.03
4024;BME280;2026;51.002;13.668;2023-01-29T05:32:23;100076.34;;;-3.29;79.27
4024;BME280;2026;51.002;13.668;2023-01-29T05:37:27;100079.91;;;-3.32;79.38
4024;BME280;2026;51.002;13.668;2023-01-29T05:42:31;100084.34;;;-3.34;79.43
4024;BME280;2026;51.002;13.668;2023-01-29T05:47:34;100080.44;;;-3.54;80.44
4024;BME280;2026;51.002;13.668;2023-01-29T05:52:38;100077.56;;;-3.35;79.68
4024;BME280;2026;51.002;13.668;2023-01-29T05:57:41;100067.69;;;-3.41;79.71
4024;BME280;2026;51.002;13.668;2023-01-29T06:02:44;100068.22;;;-3.36;79.52
4024;BME280;2026;51.002;13.668;2023-01-29T06:07:49;100084.03;;;-3.29;79.62
4024;BME280;2026;51.002;13.668;2023-01-29T06:12:52;100086.41;;;-3.26;78.88
4024;BME280;2026;51.002;13.668;2023-01-29T06:17:55;100074.31;;;-3.51;80.24
4024;BME280;2026;51.002;13.668;2023-01-29T06:23:00;100084.03;;;-3.71;80.87
4024;BME280;2026;51.002;13.668;2023-01-29T06:28:03;100103.88;;;-3.60;80.55
4024;BME280;2026;51.002;13.668;2023-01-29T06:33:06;100124.28;;;-3.44;80.15
4024;BME280;2026;51.002;13.668;2023-01-29T06:38:10;100123.63;;;-3.33;80.42
4024;BME280;2026;51.002;13.668;2023-01-29T06:43:13;100121.81;;;-3.46;81.06
4024;BME280;2026;51.002;13.668;2023-01-29T06:48:17;100124.41;;;-3.18;79.89
4024;BME280;2026;51.002;13.668;2023-01-29T06:53:21;100131.56;;;-3.23;80.12
4024;BME280;2026;51.002;13.668;2023-01-29T06:58:25;100153.59;;;-3.06;79.77
4024;BME280;2026;51.002;13.668;2023-01-29T07:03:28;100175.34;;;-3.12;80.46
4024;BME280;2026;51.002;13.668;2023-01-29T07:08:35;100174.25;;;-2.95;79.68
4024;BME280;2026;51.002;13.668;2023-01-29T07:13:38;100183.94;;;-2.98;80.28
4024;BME280;2026;51.002;13.668;2023-01-29T07:18:41;100180.78;;;-2.89;80.66
4024;BME280;2026;51.002;13.668;2023-01-29T07:23:45;100179.03;;;-2.89;80.46
4024;BME280;2026;51.002;13.668;2023-01-29T07:28:48;100181.88;;;-2.93;80.44
4024;BME280;2026;51.002;13.668;2023-01-29T07:33:51;100174.75;;;-2.75;79.95
4024;BME280;2026;51.002;13.668;2023-01-29T07:38:55;100170.91;;;-2.68;80.29
4024;BME280;2026;51.002;13.668;2023-01-29T07:43:58;100159.41;;;-2.62;80.40
4024;BME280;2026;51.002;13.668;2023-01-29T07:49:03;100158.47;;;-2.61;80.54
4024;BME280;2026;51.002;13.668;2023-01-29T07:54:07;100160.66;;;-2.55;80.04
4024;BME280;2026;51.002;13.668;2023-01-29T07:59:10;100145.25;;;-2.55;79.87
4024;BME280;2026;51.002;13.668;2023-01-29T08:04:13;100151.94;;;-2.39;79.06
4024;BME280;2026;51.002;13.668;2023-01-29T08:09:17;100135.94;;;-2.17;80.06
4024;BME280;2026;51.002;13.668;2023-01-29T08:14:20;100112.31;;;-2.35;79.77
4024;BME280;2026;51.002;13.668;2023-01-29T08:19:24;100111.47;;;-2.10;79.10
4024;BME280;2026;51.002;13.668;2023-01-29T08:24:28;100099.66;;;-1.99;79.45
4024;BME280;2026;51.002;13.668;2023-01-29T08:29:51;100090.50;;;-1.91;79.86
4024;BME280;2026;51.002;13.668;2023-01-29T08:34:54;100096.63;;;-1.67;77.58
4024;BME280;2026;51.002;13.668;2023-01-29T08:39:58;100098.31;;;-1.92;78.84
4024;BME280;2026;51.002;13.668;2023-01-29T08:45:01;100092.13;;;-1.77;78.53
4024;BME280;2026;51.002;13.668;2023-01-29T08:50:05;100095.59;;;-1.65;78.73
4024;BME280;2026;51.002;13.668;2023-01-29T08:55:10;100112.13;;;-1.56;77.54
4024;BME280;2026;51.002;13.668;2023-01-29T09:00:14;100111.63;;;-1.48;77.12
4024;BME280;2026;51.002;13.668;2023-01-29T09:05:17;100120.72;;;-1.68;78.06
4024;BME280;2026;51.002;13.668;2023-01-29T09:10:22;100102.31;;;-1.38;77.68
4024;BME280;2026;51.002;13.668;2023-01-29T09:15:25;100083.44;;;-1.25;77.10
4024;BME280;2026;51.002;13.668;2023-01-29T09:20:28;100094.00;;;-1.17;76.69
4024;BME280;2026;51.002;13.668;2023-01-29T09:25:32;100094.00;;;-1.17;76.42
4024;BME280;2026;51.002;13.668;2023-01-29T09:30:35;100087.78;;;-0.90;77.01
4024;BME280;2026;51.002;13.668;2023-01-29T09:35:39;100065.88;;;-0.71;76.18
4024;BME280;2026;51.002;13.668;2023-01-29T09:40:54;100084.59;;;-0.69;76.34
4024;BME280;2026;51.002;13.668;2023-01-29T09:46:02;100087.63;;;-0.75;75.77
4024;BME280;2026;51.002;13.668;2023-01-29T09:51:23;100080.03;;;-1.01;76.09
4024;BME280;2026;51.002;13.668;2023-01-29T09:56:29;100065.44;;;-0.54;75.83
4024;BME280;2026;51.002;13.668;2023-01-29T10:01:37;100051.41;;;-0.27;74.93
4024;BME280;2026;51.002;13.668;2023-01-29T10:06:55;100039.69;;;-0.31;75.59
4024;BME280;2026;51.002;13.668;2023-01-29T10:12:13;100029.84;;;-0.37;76.08
4024;BME280;2026;51.002;13.668;2023-01-29T10:17:36;100025.50;;;-0.48;75.60
4024;BME280;2026;51.002;13.668;2023-01-29T10:22:54;100041.81;;;-0.13;75.57
4024;BME280;2026;51.002;13.668;2023-01-29T10:28:01;100034.66;;;-0.09;74.70
4024;BME280;2026;51.002;13.668;2023-01-29T10:33:08;100026.19;;;-0.00;75.50
4024;BME280;2026;51.002;13.668;2023-01-29T10:38:22;100025.88;;;-0.07;74.01
4024;BME280;2026;51.002;13.668;2023-01-29T10:43:33;100040.59;;;-0.43;75.37
4024;BME280;2026;51.002;13.668;2023-01-29T10:48:51;100033.34;;;-0.04;75.85
4024;BME280;2026;51.002;13.668;2023-01-29T10:54:12;100024.22;;;0.15;74.77
4024;BME280;2026;51.002;13.668;2023-01-29T10:59:35;100020.53;;;0.17;75.16
4024;BME280;2026;51.002;13.668;2023-01-29T11:04:41;100005.22;;;0.16;76.91
4024;BME280;2026;51.002;13.668;2023-01-29T11:09:49;99989.09;;;0.35;75.47
4024;BME280;2026;51.002;13.668;2023-01-29T11:15:00;99973.56;;;0.58;74.88
4024;BME280;2026;51.002;13.668;2023-01-29T11:20:07;99961.91;;;0.64;74.41
4024;BME280;2026;51.002;13.668;2023-01-29T11:25:27;99958.88;;;0.58;74.92
4024;BME280;2026;51.002;13.668;2023-01-29T11:30:36;99942.69;;;0.56;74.15
4024;BME280;2026;51.002;13.668;2023-01-29T11:35:40;99937.09;;;0.51;75.65
4024;BME280;2026;51.002;13.668;2023-01-29T11:40:43;99926.56;;;0.43;75.43
4024;BME280;2026;51.002;13.668;2023-01-29T11:45:49;99913.94;;;0.61;74.73
4024;BME280;2026;51.002;13.668;2023-01-29T11:50:55;99931.75;;;0.85;74.61
4024;BME280;2026;51.002;13.668;2023-01-29T11:56:12;99930.94;;;0.64;75.18
4024;BME280;2026;51.002;13.668;2023-01-29T12:01:31;99916.94;;;1.09;74.75
4024;BME280;2026;51.002;13.668;2023-01-29T12:06:36;99917.22;;;0.84;75.19
4024;BME280;2026;51.002;13.668;2023-01-29T12:11:43;99907.13;;;0.81;75.11
4024;BME280;2026;51.002;13.668;2023-01-29T12:16:51;99897.56;;;0.93;75.30
4024;BME280;2026;51.002;13.668;2023-01-29T12:21:58;99888.34;;;1.01;73.91
4024;BME280;2026;51.002;13.668;2023-01-29T12:27:08;99879.88;;;1.20;75.20
4024;BME280;2026;51.002;13.668;2023-01-29T12:32:25;99860.78;;;1.11;74.46
4024;BME280;2026;51.002;13.668;2023-01-29T12:37:37;99835.63;;;1.03;75.38
4024;BME280;2026;51.002;13.668;2023-01-29T12:42:44;99838.03;;;1.26;74.21
4024;BME280;2026;51.002;13.668;2023-01-29T12:47:53;99843.69;;;1.20;74.59
4024;BME280;2026;51.002;13.668;2023-01-29T12:52:59;99845.59;;;1.18;75.01
4024;BME280;2026;51.002;13.668;2023-01-29T12:58:09;99849.19;;;1.36;75.28
4024;BME280;2026;51.002;13.668;2023-01-29T13:03:19;99838.34;;;1.43;74.84
4024;BME280;2026;51.002;13.668;2023-01-29T13:08:25;99833.50;;;1.79;73.92
4024;BME280;2026;51.002;13.668;2023-01-29T13:13:33;99831.88;;;1.98;72.85
4024;BME280;2026;51.002;13.668;2023-01-29T13:18:46;99811.97;;;1.68;73.69
4024;BME280;2026;51.002;13.668;2023-01-29T13:23:52;99816.47;;;2.06;73.18
4024;BME280;2026;51.002;13.668;2023-01-29T13:28:57;99806.81;;;2.08;72.18
4024;BME280;2026;51.002;13.668;2023-01-29T13:34:06;99798.50;;;2.14;72.73
4024;BME280;2026;51.002;13.668;2023-01-29T13:39:19;99798.91;;;1.60;73.50
4024;BME280;2026;51.002;13.668;2023-01-29T13:44:27;99802.97;;;1.53;73.43
4024;BME280;2026;51.002;13.668;2023-01-29T13:49:34;99805.31;;;1.56;73.25
4024;BME280;2026;51.002;13.668;2023-01-29T13:54:39;99818.88;;;1.48;74.15
4024;BME280;2026;51.002;13.668;2023-01-29T13:59:51;99824.22;;;1.66;74.00
4024;BME280;2026;51.002;13.668;2023-01-29T14:11:32;99795.38;;;1.61;73.67
4024;BME280;2026;51.002;13.668;2023-01-29T14:16:36;99787.06;;;0.97;76.26
4024;BME280;2026;51.002;13.668;2023-01-29T14:21:40;99798.91;;;1.40;75.42
4024;BME280;2026;51.002;13.668;2023-01-29T14:26:46;99795.59;;;1.38;75.88
4024;BME280;2026;51.002;13.668;2023-01-29T14:31:52;99795.31;;;1.22;76.45
4024;BME280;2026;51.002;13.668;2023-01-29T14:36:59;99783.38;;;1.31;75.61
4024;BME280;2026;51.002;13.668;2023-01-29T14:42:15;99777.81;;;1.45;74.55
4024;BME280;2026;51.002;13.668;2023-01-29T14:47:22;99788.84;;;1.47;75.09
4024;BME280;2026;51.002;13.668;2023-01-29T14:52:45;99795.78;;;0.96;76.95
4024;BME280;2026;51.002;13.668;2023-01-29T14:57:52;99809.38;;;0.98;75.64
4024;BME280;2026;51.002;13.668;2023-01-29T15:02:58;99803.78;;;0.93;76.90
4024;BME280;2026;51.002;13.668;2023-01-29T15:08:07;99801.63;;;0.67;77.70
4024;BME280;2026;51.002;13.668;2023-01-29T15:13:21;99798.41;;;0.75;77.33
4024;BME280;2026;51.002;13.668;2023-01-29T15:18:34;99803.31;;;0.78;77.52
4024;BME280;2026;51.002;13.668;2023-01-29T15:23:40;99795.13;;;0.72;77.91
4024;BME280;2026;51.002;13.668;2023-01-29T15:28:53;99781.16;;;0.75;77.96
4024;BME280;2026;51.002;13.668;2023-01-29T15:34:06;99770.75;;;0.55;77.57
4024;BME280;2026;51.002;13.668;2023-01-29T15:39:14;99776.97;;;0.53;78.26
4024;BME280;2026;51.002;13.668;2023-01-29T15:44:21;99776.47;;;0.59;78.17
4024;BME280;2026;51.002;13.668;2023-01-29T15:49:28;99768.41;;;0.52;78.66
4024;BME280;2026;51.002;13.668;2023-01-29T15:54:33;99760.59;;;0.33;79.13
4024;BME280;2026;51.002;13.668;2023-01-29T15:59:43;99758.88;;;0.43;79.00
4024;BME280;2026;51.002;13.668;2023-01-29T16:04:46;99761.88;;;0.48;77.98
4024;BME280;2026;51.002;13.668;2023-01-29T16:09:49;99760.66;;;0.42;77.94
4024;BME280;2026;51.002;13.668;2023-01-29T16:14:55;99761.31;;;-0.19;80.08
4024;BME280;2026;51.002;13.668;2023-01-29T16:20:00;99755.06;;;-0.05;79.90
4024;BME280;2026;51.002;13.668;2023-01-29T16:25:06;99752.78;;;-0.20;80.03
4024;BME280;2026;51.002;13.668;2023-01-29T16:30:14;99756.41;;;0.10;79.75
4024;BME280;2026;51.002;13.668;2023-01-29T16:35:17;99747.31;;;0.16;79.70
4024;BME280;2026;51.002;13.668;2023-01-29T16:40:26;99737.88;;;0.26;79.40
4024;BME280;2026;51.002;13.668;2023-01-29T16:45:34;99729.50;;;0.34;78.84
4024;BME280;2026;51.002;13.668;2023-01-29T16:50:37;99732.63;;;0.07;79.92
4024;BME280;2026;51.002;13.668;2023-01-29T16:56:00;99718.78;;;0.08;79.68
4024;BME280;2026;51.002;13.668;2023-01-29T17:01:07;99723.31;;;-0.06;79.52
4024;BME280;2026;51.002;13.668;2023-01-29T17:06:12;99713.09;;;0.14;79.13
4024;BME280;2026;51.002;13.668;2023-01-29T17:11:26;99715.06;;;0.00;79.20
4024;BME280;2026;51.002;13.668;2023-01-29T17:16:34;99721.03;;;-0.20;78.91
4024;BME280;2026;51.002;13.668;2023-01-29T17:21:38;99715.47;;;-0.04;79.21
4024;BME280;2026;51.002;13.668;2023-01-29T17:26:41;99697.03;;;0.00;79.01
4024;BME280;2026;51.002;13.668;2023-01-29T17:31:45;99708.34;;;-0.12;78.73
4024;BME280;2026;51.002;13.668;2023-01-29T17:36:48;99702.88;;;0.02;78.69
4024;BME280;2026;51.002;13.668;2023-01-29T17:41:53;99711.78;;;-0.02;78.85
4024;BME280;2026;51.002;13.668;2023-01-29T17:46:58;99700.09;;;-0.06;77.94
4024;BME280;2026;51.002;13.668;2023-01-29T17:52:02;99707.16;;;-0.08;77.15
4024;BME280;2026;51.002;13.668;2023-01-29T17:57:05;99705.56;;;-0.20;77.74
4024;BME280;2026;51.002;13.668;2023-01-29T18:02:09;99690.47;;;-0.04;77.25
4024;BME280;2026;51.002;13.668;2023-01-29T18:07:30;99701.84;;;-0.28;78.10
4024;BME280;2026;51.002;13.668;2023-01-29T18:12:33;99692.13;;;-0.24;77.54
4024;BME280;2026;51.002;13.668;2023-01-29T18:17:38;99693.47;;;-0.41;78.17
4024;BME280;2026;51.002;13.668;2023-01-29T18:22:41;99682.94;;;-0.38;77.84
4024;BME280;2026;51.002;13.668;2023-01-29T18:27:44;99677.59;;;-0.46;77.30
4024;BME280;2026;51.002;13.668;2023-01-29T18:32:48;99674.94;;;-0.35;76.87
4024;BME280;2026;51.002;13.668;2023-01-29T18:37:51;99673.09;;;-0.33;76.44
4024;BME280;2026;51.002;13.668;2023-01-29T18:42:54;99652.03;;;-0.38;76.57
4024;BME280;2026;51.002;13.668;2023-01-29T18:48:01;99662.16;;;-0.46;75.89
4024;BME280;2026;51.002;13.668;2023-01-29T18:53:04;99650.25;;;-0.59;76.05
4024;BME280;2026;51.002;13.668;2023-01-29T18:58:08;99654.03;;;-0.63;76.41
4024;BME280;2026;51.002;13.668;2023-01-29T19:03:32;99628.75;;;-0.69;76.32
4024;BME280;2026;51.002;13.668;2023-01-29T19:08:35;99614.94;;;-0.68;76.04
4024;BME280;2026;51.002;13.668;2023-01-29T19:13:38;99607.84;;;-0.55;75.61
4024;BME280;2026;51.002;13.668;2023-01-29T19:18:44;99603.97;;;-0.70;75.69
4024;BME280;2026;51.002;13.668;2023-01-29T19:23:47;99598.72;;;-0.59;75.70
4024;BME280;2026;51.002;13.668;2023-01-29T19:28:50;99586.16;;;-0.73;75.24
4024;BME280;2026;51.002;13.668;2023-01-29T19:33:54;99592.31;;;-0.86;75.69
4024;BME280;2026;51.002;13.668;2023-01-29T19:38:57;99586.78;;;-1.02;76.44
4024;BME280;2026;51.002;13.668;2023-01-29T19:44:00;99587.09;;;-0.96;76.38
4024;BME280;2026;51.002;13.668;2023-01-29T19:49:05;99576.97;;;-1.09;76.56
4024;BME280;2026;51.002;13.668;2023-01-29T19:54:10;99563.56;;;-0.91;76.71
4024;BME280;2026;51.002;13.668;2023-01-29T19:59:13;99561.28;;;-1.05;75.82
4024;BME280;2026;51.002;13.668;2023-01-29T20:04:18;99560.38;;;-1.16;76.88
4024;BME280;2026;51.002;13.668;2023-01-29T20:09:21;99572.41;;;-1.05;76.33
4024;BME280;2026;51.002;13.668;2023-01-29T20:14:24;99564.03;;;-0.97;75.71
4024;BME280;2026;51.002;13.668;2023-01-29T20:19:28;99567.91;;;-1.24;76.74
4024;BME280;2026;51.002;13.668;2023-01-29T20:24:31;99575.91;;;-1.06;76.44
4024;BME280;2026;51.002;13.668;2023-01-29T20:29:39;99562.75;;;-1.24;77.06
4024;BME280;2026;51.002;13.668;2023-01-29T20:34:45;99551.81;;;-1.38;76.77
4024;BME280;2026;51.002;13.668;2023-01-29T20:39:52;99544.81;;;-1.47;76.43
4024;BME280;2026;51.002;13.668;2023-01-29T20:44:55;99537.16;;;-1.70;77.90
4024;BME280;2026;51.002;13.668;2023-01-29T20:50:00;99530.53;;;-1.84;78.06
4024;BME280;2026;51.002;13.668;2023-01-29T20:55:10;99526.91;;;-1.81;77.97
4024;BME280;2026;51.002;13.668;2023-01-29T21:00:14;99523.28;;;-1.90;77.81
4024;BME280;2026;51.002;13.668;2023-01-29T21:05:19;99508.22;;;-1.95;77.82
4024;BME280;2026;51.002;13.668;2023-01-29T21:10:22;99506.03;;;-1.99;77.61
4024;BME280;2026;51.002;13.668;2023-01-29T21:15:25;99506.63;;;-2.30;78.13
4024;BME280;2026;51.002;13.668;2023-01-29T21:20:30;99484.53;;;-2.33;78.05
4024;BME280;2026;51.002;13.668;2023-01-29T21:25:33;99463.91;;;-2.20;77.62
4024;BME280;2026;51.002;13.668;2023-01-29T21:30:36;99444.03;;;-2.29;77.35
4024;BME280;2026;51.002;13.668;2023-01-29T21:35:41;99462.16;;;-2.31;77.54
4024;BME280;2026;51.002;13.668;2023-01-29T21:40:43;99460.16;;;-2.27;76.90
4024;BME280;2026;51.002;13.668;2023-01-29T21:45:53;99458.75;;;-2.20;76.65
4024;BME280;2026;51.002;13.668;2023-01-29T21:50:58;99443.78;;;-2.14;76.66
4024;BME280;2026;51.002;13.668;2023-01-29T21:56:02;99429.91;;;-2.23;76.86
4024;BME280;2026;51.002;13.668;2023-01-29T22:01:06;99420.75;;;-2.05;76.01
4024;BME280;2026;51.002;13.668;2023-01-29T22:06:30;99399.88;;;-2.11;76.04
4024;BME280;2026;51.002;13.668;2023-01-29T22:11:33;99394.03;;;-2.13;76.20
4024;BME280;2026;51.002;13.668;2023-01-29T22:16:36;99385.41;;;-2.12;76.71
4024;BME280;2026;51.002;13.668;2023-01-29T22:21:40;99372.78;;;-2.04;75.96
4024;BME280;2026;51.002;13.668;2023-01-29T22:26:43;99356.03;;;-1.98;75.51
4024;BME280;2026;51.002;13.668;2023-01-29T22:31:49;99343.84;;;-1.85;75.83
4024;BME280;2026;51.002;13.668;2023-01-29T22:36:53;99325.72;;;-1.83;75.59
4024;BME280;2026;51.002;13.668;2023-01-29T22:41:56;99322.44;;;-1.85;74.53
4024;BME280;2026;51.002;13.668;2023-01-29T22:46:59;99327.22;;;-1.81;75.12
4024;BME280;2026;51.002;13.668;2023-01-29T22:52:04;99296.00;;;-1.76;75.57
4024;BME280;2026;51.002;13.668;2023-01-29T22:57:13;99288.97;;;-1.74;75.00
4024;BME280;2026;51.002;13.668;2023-01-29T23:02:17;99276.81;;;-1.93;75.69
4024;BME280;2026;51.002;13.668;2023-01-29T23:07:21;99274.78;;;-1.90;75.22
4024;BME280;2026;51.002;13.668;2023-01-29T23:12:24;99265.16;;;-1.76;75.31
4024;BME280;2026;51.002;13.668;2023-01-29T23:17:27;99253.38;;;-2.00;75.36
4024;BME280;2026;51.002;13.668;2023-01-29T23:22:31;99242.34;;;-1.91;74.99
4024;BME280;2026;51.002;13.668;2023-01-29T23:27:34;99242.78;;;-1.85;75.70
4024;BME280;2026;51.002;13.668;2023-01-29T23:32:37;99231.72;;;-1.76;75.34
4024;BME280;2026;51.002;13.668;2023-01-29T23:37:41;99225.22;;;-1.80;75.36
4024;BME280;2026;51.002;13.668;2023-01-29T23:42:46;99213.13;;;-1.68;75.11
4024;BME280;2026;51.002;13.668;2023-01-29T23:47:49;99192.19;;;-1.54;75.10
4024;BME280;2026;51.002;13.668;2023-01-29T23:52:53;99167.69;;;-1.58;74.57
4024;BME280;2026;51.002;13.668;2023-01-29T23:57:56;99157.50;;;-1.69;75.28
